createdAt,value
2018-04-10T00:02:05.521Z,37.53
2018-04-10T00:04:34.018Z,43.07
2018-04-10T00:07:01.718Z,47.13
2018-04-10T00:09:29.481Z,45.70
2018-04-10T00:11:57.194Z,42.77
2018-04-10T00:14:25.666Z,41.50
2018-04-10T00:16:54.368Z,43.70
2018-04-10T00:19:22.065Z,38.13
2018-04-10T00:21:49.766Z,37.37
2018-04-10T00:24:17.505Z,33.20
2018-04-10T00:26:45.976Z,32.67
2018-04-10T00:29:13.690Z,33.03
2018-04-10T00:31:42.373Z,32.23
2018-04-10T00:34:10.856Z,32.63
2018-04-10T00:36:39.337Z,29.57
2018-04-10T00:39:07.902Z,25.90
2018-04-10T00:41:35.605Z,24.63
2018-04-10T00:44:03.315Z,33.80
2018-04-10T00:46:31.069Z,29.77
2018-04-10T00:48:58.779Z,25.10
2018-04-10T00:51:27.254Z,21.90
2018-04-10T00:53:55.777Z,21.23
2018-04-10T00:56:23.481Z,20.83
2018-04-10T00:58:51.971Z,20.83
2018-04-10T01:01:20.774Z,23.03
2018-04-10T01:03:49.378Z,17.47
2018-04-10T01:06:17.070Z,25.40
2018-04-10T01:08:44.830Z,20.80
2018-04-10T01:11:12.547Z,19.93
2018-04-10T01:13:41.018Z,21.97
2018-04-10T01:16:09.601Z,22.17
2018-04-10T01:18:38.061Z,20.17
2018-04-10T01:21:05.765Z,20.97
2018-04-10T01:23:33.710Z,41.27
2018-04-10T01:26:02.198Z,28.90
2018-04-10T01:28:30.678Z,33.37
2018-04-10T01:30:59.461Z,20.30
2018-04-10T01:33:27.941Z,25.30
2018-04-10T01:35:56.422Z,24.30
2018-04-10T01:38:25.165Z,24.57
2018-04-10T01:40:52.883Z,23.97
2018-04-10T01:43:21.355Z,21.13
2018-04-10T01:45:50.037Z,33.00
2018-04-10T01:48:18.513Z,22.47
2018-04-10T01:50:46.990Z,26.80
2018-04-10T01:53:15.698Z,21.07
2018-04-10T01:55:44.177Z,21.20
2018-04-10T01:58:12.650Z,28.43
2018-04-10T02:00:41.170Z,24.67
2018-04-10T02:03:08.873Z,28.77
2018-04-10T02:05:36.577Z,28.20
2018-04-10T02:08:04.483Z,32.17
2018-04-10T02:10:32.194Z,37.43
2018-04-10T02:13:00.683Z,32.90
2018-04-10T02:15:28.533Z,33.93
2018-04-10T02:17:57.017Z,35.47
2018-04-10T02:20:25.501Z,34.67
2018-04-10T02:22:54.186Z,36.67
2018-04-10T02:25:22.665Z,30.93
2018-04-10T02:27:51.144Z,34.80
2018-04-10T02:30:19.678Z,28.53
2018-04-10T02:32:47.390Z,29.13
2018-04-10T02:35:15.859Z,35.33
2018-04-10T02:37:44.393Z,31.93
2018-04-10T02:40:12.122Z,25.23
2018-04-10T02:42:40.609Z,28.87
2018-04-10T02:45:09.222Z,30.90
2018-04-10T02:47:36.926Z,32.67
2018-04-10T02:50:04.630Z,36.80
2018-04-10T02:52:32.398Z,33.60
2018-04-10T02:55:00.102Z,30.13
2018-04-10T02:57:27.817Z,31.93
2018-04-10T02:59:56.373Z,23.50
2018-04-10T03:02:24.095Z,31.77
2018-04-10T03:04:51.807Z,25.50
2018-04-10T03:07:20.469Z,32.83
2018-04-10T03:09:48.174Z,30.27
2018-04-10T03:12:15.886Z,27.93
2018-04-10T03:14:43.651Z,33.93
2018-04-10T03:17:11.352Z,31.97
2018-04-10T03:19:39.825Z,35.23
2018-04-10T03:22:08.491Z,20.47
2018-04-10T03:24:36.194Z,29.00
2018-04-10T03:27:03.931Z,24.73
2018-04-10T03:29:32.481Z,24.83
2018-04-10T03:32:00.181Z,24.03
2018-04-10T03:34:28.641Z,23.63
2018-04-10T03:36:56.533Z,29.43
2018-04-10T03:39:25.418Z,25.53
2018-04-10T03:41:53.906Z,27.13
2018-04-10T03:44:22.429Z,34.73
2018-04-10T03:46:50.137Z,31.80
2018-04-10T03:49:18.639Z,30.07
2018-04-10T03:51:46.390Z,42.67
2018-04-10T03:54:14.869Z,35.77
2018-04-10T03:56:43.350Z,33.20
2018-04-10T03:59:11.873Z,39.43
2018-04-10T04:01:39.574Z,31.77
2018-04-10T04:04:07.277Z,55.13
2018-04-10T04:06:35.223Z,40.37
2018-04-10T04:09:03.761Z,44.40
2018-04-10T04:11:31.466Z,38.83
2018-04-10T04:14:00.012Z,36.60
2018-04-10T04:16:40.547Z,32.93
2018-04-10T04:19:20.166Z,33.67
2018-04-10T04:21:58.315Z,34.57
2018-04-10T04:24:26.317Z,25.13
2018-04-10T04:26:54.818Z,23.40
2018-04-10T04:29:23.306Z,21.70
2018-04-10T04:31:51.953Z,30.87
2018-04-10T04:34:19.658Z,19.47
2018-04-10T04:36:48.198Z,26.80
2018-04-10T04:39:15.966Z,22.87
2018-04-10T04:41:43.707Z,20.00
2018-04-10T04:44:11.417Z,17.83
2018-04-10T04:46:39.249Z,21.70
2018-04-10T04:49:06.950Z,21.20
2018-04-10T04:51:35.475Z,18.30
2018-04-10T04:54:04.766Z,22.97
2018-04-10T04:56:32.481Z,18.83
2018-04-10T04:59:01.718Z,19.90
2018-04-10T05:01:29.462Z,24.97
2018-04-10T05:03:57.942Z,21.03
2018-04-10T05:06:26.429Z,26.47
2018-04-10T05:08:54.962Z,20.57
2018-04-10T05:11:22.669Z,27.70
2018-04-10T05:13:51.143Z,21.60
2018-04-10T05:16:19.754Z,21.33
2018-04-10T05:18:47.467Z,19.70
2018-04-10T05:21:15.166Z,26.23
2018-04-10T05:23:42.921Z,24.07
2018-04-10T05:26:11.402Z,21.17
2018-04-10T05:28:39.885Z,18.87
2018-04-10T05:31:08.545Z,18.90
2018-04-10T05:33:36.257Z,14.07
2018-04-10T05:36:04.859Z,16.63
2018-04-10T05:38:32.617Z,14.50
2018-04-10T05:41:00.369Z,13.63
2018-04-10T05:43:28.070Z,12.27
2018-04-10T05:45:56.685Z,15.07
2018-04-10T05:48:25.150Z,15.53
2018-04-10T05:50:52.861Z,13.83
2018-04-10T05:53:20.802Z,12.23
2018-04-10T05:55:49.278Z,29.00
2018-04-10T05:58:17.754Z,16.77
2018-04-10T06:00:45.499Z,19.00
2018-04-10T06:03:13.207Z,13.57
2018-04-10T06:05:40.951Z,16.83
2018-04-10T06:08:09.509Z,14.60
2018-04-10T06:10:38.053Z,12.97
2018-04-10T06:13:05.757Z,15.30
2018-04-10T06:15:33.749Z,16.97
2018-04-10T06:18:02.229Z,17.17
2018-04-10T06:20:30.729Z,16.93
2018-04-10T06:22:58.521Z,18.63
2018-04-10T06:25:26.250Z,15.53
2018-04-10T06:27:54.726Z,20.60
2018-04-10T06:30:23.251Z,18.03
2018-04-10T06:32:50.969Z,18.83
2018-04-10T06:42:04.973Z,20.77
2018-04-10T06:44:33.444Z,21.10
2018-04-10T06:47:01.925Z,14.93
2018-04-10T06:49:30.449Z,16.30
2018-04-10T06:51:58.533Z,15.53
2018-04-10T06:54:26.244Z,16.70
2018-04-10T06:56:54.999Z,14.37
2018-04-10T06:59:23.345Z,15.93
2018-04-10T07:01:51.637Z,11.63
2018-04-10T07:04:19.493Z,13.67
2018-04-10T07:06:47.209Z,20.07
2018-04-10T07:09:15.687Z,18.00
2018-04-10T07:11:44.221Z,12.07
2018-04-10T07:14:11.947Z,16.70
2018-04-10T07:16:39.810Z,20.10
2018-04-10T07:19:07.710Z,19.70
2018-04-10T07:21:39.426Z,54.37
2018-04-10T07:24:07.922Z,27.27
2018-04-10T07:26:35.721Z,15.53
2018-04-10T07:29:05.778Z,16.70
2018-04-10T07:31:34.332Z,15.07
2018-04-10T07:34:02.730Z,18.10
2018-04-10T07:36:32.173Z,15.73
2018-04-10T07:38:59.885Z,17.43
2018-04-10T07:41:27.642Z,26.50
2018-04-10T07:43:56.049Z,18.07
2018-04-10T07:46:24.542Z,19.10
2018-04-10T07:49:11.809Z,20.03
2018-04-10T07:51:39.514Z,19.83
2018-04-10T07:54:07.249Z,20.73
2018-04-10T07:56:35.005Z,24.17
2018-04-10T07:59:02.725Z,23.60
2018-04-10T08:01:30.469Z,16.67
2018-04-10T08:03:59.526Z,14.17
2018-04-10T08:06:27.296Z,19.90
2018-04-10T08:08:55.018Z,23.30
2018-04-10T08:11:22.969Z,48.43
2018-04-10T08:13:51.458Z,22.47
2018-04-10T08:16:19.178Z,25.93
2018-04-10T08:18:47.004Z,19.00
2018-04-10T08:21:14.726Z,16.03
2018-04-10T08:23:43.225Z,17.73
2018-04-10T08:26:11.759Z,13.13
2018-04-10T08:28:39.471Z,21.43
2018-04-10T08:31:07.960Z,20.40
2018-04-10T08:33:35.879Z,20.47
2018-04-10T08:36:03.590Z,18.80
2018-04-10T08:38:31.305Z,21.63
2018-04-10T08:40:59.086Z,21.87
2018-04-10T08:43:26.825Z,17.63
2018-04-10T08:45:54.533Z,18.13
2018-04-10T08:48:23.062Z,14.43
2018-04-10T08:50:50.773Z,11.10
2018-04-10T08:53:19.288Z,14.13
2018-04-10T08:55:47.058Z,10.70
2018-04-10T08:58:14.778Z,20.57
2018-04-10T09:00:43.265Z,14.07
2018-04-10T09:03:11.866Z,19.47
2018-04-10T09:05:40.349Z,14.83
2018-04-10T09:08:08.110Z,19.50
2018-04-10T09:10:36.010Z,17.50
2018-04-10T09:13:04.027Z,19.10
2018-04-10T09:15:32.511Z,12.37
2018-04-10T09:18:01.050Z,13.53
2018-04-10T09:20:28.763Z,14.73
2018-04-10T09:22:56.484Z,12.77
2018-04-10T09:25:24.246Z,9.30
2018-04-10T09:27:52.926Z,15.60
2018-04-10T09:30:20.630Z,12.13
2018-04-10T09:32:49.138Z,12.43
2018-04-10T09:35:16.871Z,16.30
2018-04-10T09:37:46.078Z,13.37
2018-04-10T09:40:14.616Z,18.73
2018-04-10T09:42:42.326Z,15.10
2018-04-10T09:45:10.839Z,36.87
2018-04-10T09:47:38.614Z,11.37
2018-04-10T09:50:06.335Z,14.43
2018-04-10T09:52:34.831Z,12.33
2018-04-10T09:55:02.703Z,12.83
2018-04-10T09:57:30.414Z,12.10
2018-04-10T09:59:58.123Z,15.23
2018-04-10T10:02:25.899Z,14.60
2018-04-10T10:04:53.602Z,9.83
2018-04-10T10:07:21.302Z,14.27
2018-04-10T10:09:49.995Z,16.50
2018-04-10T10:12:18.457Z,15.43
2018-04-10T10:14:46.177Z,16.33
2018-04-10T10:17:13.946Z,10.97
2018-04-10T10:19:41.650Z,15.77
2018-04-10T10:22:09.346Z,13.90
2018-04-10T10:24:37.354Z,10.83
2018-04-10T10:27:05.082Z,10.23
2018-04-10T10:29:32.785Z,9.07
2018-04-10T10:32:00.637Z,13.27
2018-04-10T10:34:28.334Z,7.33
2018-04-10T10:36:56.030Z,8.03
2018-04-10T10:39:23.970Z,8.13
2018-04-10T10:41:51.666Z,12.70
2018-04-10T10:44:19.369Z,7.30
2018-04-10T10:46:47.127Z,6.13
2018-04-10T10:49:14.838Z,12.37
2018-04-10T10:51:43.315Z,8.73
2018-04-10T10:54:11.842Z,55.93
2018-04-10T10:56:39.546Z,11.60
2018-04-10T10:59:07.242Z,7.23
2018-04-10T11:01:35.002Z,11.97
2018-04-10T11:04:02.722Z,12.83
2018-04-10T11:06:30.473Z,11.27
2018-04-10T11:08:58.330Z,9.10
2018-04-10T11:11:26.039Z,7.60
2018-04-10T11:13:54.506Z,11.80
2018-04-10T11:16:22.294Z,11.53
2018-04-10T11:18:50.767Z,15.27
2018-04-10T11:21:19.249Z,9.73
2018-04-10T11:23:47.846Z,10.30
2018-04-10T11:26:15.558Z,9.00
2018-04-10T11:28:43.266Z,10.17
2018-04-10T11:31:11.900Z,5.63
2018-04-10T11:33:39.598Z,7.43
2018-04-10T11:36:08.081Z,34.07
2018-04-10T11:38:36.619Z,8.27
2018-04-10T11:41:04.330Z,9.53
2018-04-10T11:43:32.814Z,5.77
2018-04-10T11:46:01.519Z,10.77
2018-04-10T11:48:29.223Z,7.20
2018-04-10T11:50:56.918Z,8.90
2018-04-10T11:53:25.619Z,7.83
2018-04-10T11:55:54.086Z,7.50
2018-04-10T11:58:22.549Z,7.50
2018-04-10T12:00:50.366Z,7.57
2018-04-10T12:03:18.071Z,7.07
2018-04-10T12:05:45.773Z,5.93
2018-04-10T12:08:13.564Z,5.83
2018-04-10T12:10:41.283Z,10.77
2018-04-10T12:13:09.753Z,12.73
2018-04-10T12:15:37.750Z,8.60
2018-04-10T12:18:05.456Z,8.53
2018-04-10T12:20:33.153Z,7.53
2018-04-10T12:23:01.746Z,5.60
2018-04-10T12:25:30.218Z,8.50
2018-04-10T12:27:57.914Z,8.47
2018-04-10T12:30:25.754Z,10.30
2018-04-10T12:32:54.230Z,6.33
2018-04-10T12:35:23.437Z,8.00
2018-04-10T12:37:51.975Z,13.87
2018-04-10T12:40:19.673Z,8.00
2018-04-10T12:42:48.134Z,5.60
2018-04-10T12:45:15.899Z,7.20
2018-04-10T12:47:43.597Z,10.53
2018-04-10T12:50:11.295Z,8.17
2018-04-10T12:52:39.057Z,9.40
2018-04-10T12:55:06.765Z,5.57
2018-04-10T12:57:34.499Z,9.73
2018-04-10T13:00:02.254Z,12.20
2018-04-10T13:02:29.954Z,4.60
2018-04-10T13:04:57.662Z,5.83
2018-04-10T13:07:26.343Z,9.73
2018-04-10T13:09:54.817Z,5.57
2018-04-10T13:12:23.297Z,7.67
2018-04-10T13:14:51.182Z,28.63
2018-04-10T13:17:19.654Z,5.27
2018-04-10T13:19:48.135Z,21.33
2018-04-10T13:22:16.733Z,8.40
2018-04-10T13:24:45.198Z,24.57
2018-04-10T13:27:13.680Z,4.77
2018-04-10T13:29:41.467Z,8.00
2018-04-10T13:32:09.209Z,5.40
2018-04-10T13:34:37.698Z,9.17
2018-04-10T13:37:06.224Z,44.90
2018-04-10T13:39:33.929Z,7.63
2018-04-10T13:42:02.413Z,8.53
2018-04-10T13:44:31.097Z,7.23
2018-04-10T13:46:59.586Z,5.17
2018-04-10T13:49:28.057Z,6.57
2018-04-10T13:51:56.578Z,6.60
2018-04-10T13:54:24.274Z,6.23
2018-04-10T13:56:51.970Z,11.83
2018-04-10T13:59:20.577Z,6.33
2018-04-10T14:01:48.273Z,5.93
2018-04-10T14:04:15.986Z,10.00
2018-04-10T14:06:44.767Z,9.43
2018-04-10T14:09:13.237Z,5.50
2018-04-10T14:11:40.943Z,6.07
2018-04-10T14:14:08.719Z,9.77
2018-04-10T14:16:36.423Z,18.70
2018-04-10T14:19:04.155Z,8.30
2018-04-10T14:21:32.165Z,7.60
2018-04-10T14:24:00.647Z,17.53
2018-04-10T14:26:29.125Z,7.20
2018-04-10T14:28:57.813Z,6.10
2018-04-10T14:31:26.311Z,19.20
2018-04-10T14:33:54.055Z,11.17
2018-04-10T14:36:22.579Z,8.47
2018-04-10T14:38:50.278Z,7.53
2018-04-10T14:41:17.978Z,7.67
2018-04-10T14:43:46.574Z,9.50
2018-04-10T14:46:14.270Z,5.67
2018-04-10T14:55:26.104Z,5.97
2018-04-10T14:57:53.822Z,11.93
2018-04-10T15:00:22.290Z,7.40
2018-04-10T15:02:50.906Z,8.07
2018-04-10T15:05:18.621Z,16.57
2018-04-10T15:07:46.366Z,7.60
2018-04-10T15:10:14.190Z,10.93
2018-04-10T15:12:41.886Z,6.33
2018-04-10T15:15:09.586Z,9.87
2018-04-10T15:17:37.433Z,20.23
2018-04-10T15:20:05.143Z,11.00
2018-04-10T15:22:32.877Z,8.57
2018-04-10T15:25:00.861Z,11.53
2018-04-10T15:27:29.354Z,10.17
2018-04-10T15:29:57.818Z,7.03
2018-04-10T15:32:26.422Z,12.53
2018-04-10T15:34:54.122Z,12.93
2018-04-10T15:37:21.823Z,6.23
2018-04-10T15:39:50.508Z,5.67
2018-04-10T15:42:18.973Z,11.23
2018-04-10T15:44:47.465Z,6.50
2018-04-10T15:47:16.162Z,10.43
2018-04-10T15:49:44.650Z,12.17
2018-04-10T15:52:12.361Z,22.47
2018-04-10T15:54:40.124Z,25.67
2018-04-10T15:57:07.831Z,9.43
2018-04-10T15:59:36.305Z,11.50
2018-04-10T16:02:04.902Z,9.27
2018-04-10T16:04:33.370Z,10.23
2018-04-10T16:07:01.862Z,5.47
2018-04-10T16:09:30.382Z,17.63
2018-04-10T16:11:58.079Z,12.77
2018-04-10T16:14:25.804Z,11.07
2018-04-10T16:16:53.546Z,11.67
2018-04-10T16:19:21.243Z,16.73
2018-04-10T16:21:48.956Z,12.23
2018-04-10T16:24:17.555Z,10.30
2018-04-10T16:26:45.249Z,12.03
2018-04-10T16:29:12.946Z,13.83
2018-04-10T16:31:40.701Z,21.43
2018-04-10T16:34:08.402Z,11.50
2018-04-10T16:36:36.107Z,19.97
2018-04-10T16:39:05.827Z,16.47
2018-04-10T16:41:33.555Z,10.03
2018-04-10T16:44:01.257Z,29.33
2018-04-10T16:46:29.781Z,16.67
2018-04-10T16:48:57.490Z,12.67
2018-04-10T16:51:25.223Z,22.43
2018-04-10T16:53:53.910Z,11.53
2018-04-10T16:56:22.398Z,20.47
2018-04-10T16:58:50.870Z,11.00
2018-04-10T17:01:19.517Z,10.43
2018-04-10T17:03:47.227Z,14.53
2018-04-10T17:06:15.722Z,6.27
2018-04-10T17:08:43.481Z,24.80
2018-04-10T17:11:11.185Z,11.33
2018-04-10T17:13:38.886Z,6.67
2018-04-10T17:16:07.546Z,10.27
2018-04-10T17:18:35.341Z,12.33
2018-04-10T17:21:03.850Z,10.27
2018-04-10T17:23:31.671Z,8.10
2018-04-10T17:25:59.408Z,27.30
2018-04-10T17:28:27.159Z,15.33
2018-04-10T17:30:54.949Z,14.67
2018-04-10T17:33:22.762Z,9.93
2018-04-10T18:33:50.209Z,15.03
2018-04-10T18:39:21.480Z,14.40
2018-04-10T18:41:49.353Z,13.80
2018-04-10T18:44:17.217Z,18.73
2018-04-10T18:46:45.188Z,18.97
2018-04-10T18:55:19.585Z,17.33
2018-04-10T18:57:47.447Z,10.83
2018-04-10T19:00:15.321Z,15.60
2018-04-10T19:02:43.185Z,11.17
2018-04-10T19:05:11.047Z,11.30
2018-04-10T19:07:38.921Z,11.47
2018-04-10T19:10:06.883Z,12.00
2018-04-10T19:12:34.647Z,16.80
2018-04-10T19:15:02.520Z,16.17
2018-04-10T19:17:30.384Z,23.37
2018-04-10T19:19:58.246Z,29.40
2018-04-10T19:22:25.948Z,13.10
2018-04-10T19:24:55.520Z,12.93
2018-04-10T19:27:23.382Z,13.07
2018-04-10T19:29:51.255Z,12.17
2018-04-10T19:32:19.328Z,10.50
2018-04-10T19:34:47.189Z,9.30
2018-04-10T19:37:15.052Z,12.40
2018-04-10T19:39:43.123Z,6.90
2018-04-10T19:42:11.000Z,8.40
2018-04-10T19:44:38.860Z,8.70
2018-04-10T19:47:06.723Z,8.90
2018-04-10T19:49:34.596Z,7.87
2018-04-10T19:52:02.459Z,12.77
2018-04-10T19:54:30.324Z,15.90
2018-04-10T19:56:58.195Z,10.97
2018-04-10T19:59:26.061Z,9.00
2018-04-10T20:01:54.338Z,10.93
2018-04-10T20:04:22.201Z,21.30
2018-04-10T20:06:50.064Z,9.37
2018-04-10T20:09:17.937Z,13.00
2018-04-10T20:11:45.800Z,7.17
2018-04-10T20:14:13.601Z,10.80
2018-04-10T20:16:43.072Z,12.10
2018-04-10T20:19:10.935Z,9.23
2018-04-10T20:21:38.798Z,7.07
2018-04-10T20:24:06.671Z,9.07
2018-04-10T20:26:34.536Z,8.27
2018-04-10T20:29:02.298Z,15.37
2018-04-10T20:31:30.469Z,6.33
2018-04-10T20:33:58.342Z,7.30
2018-04-10T20:36:26.149Z,10.57
2018-04-10T20:38:54.990Z,13.90
2018-04-10T20:41:22.864Z,6.97
2018-04-10T20:43:51.549Z,9.63
2018-04-10T20:46:19.720Z,15.10
2018-04-10T20:48:47.583Z,12.90
2018-04-10T20:51:15.456Z,16.87
2018-04-10T20:53:43.319Z,15.73
2018-04-10T20:56:11.182Z,10.47
2018-04-10T20:58:39.055Z,32.07
2018-04-10T21:01:07.323Z,43.47
2018-04-10T21:03:35.137Z,16.77
2018-04-10T21:06:04.651Z,11.10
2018-04-10T21:08:32.768Z,9.90
2018-04-10T21:11:00.531Z,7.47
2018-04-10T21:13:28.405Z,7.90
2018-04-10T21:15:56.271Z,7.50
2018-04-10T21:18:24.132Z,15.07
2018-04-10T21:20:52.005Z,10.17
2018-04-10T21:23:20.274Z,12.20
2018-04-10T21:25:48.195Z,8.67
2018-04-10T21:28:16.833Z,7.67
2018-04-10T21:30:44.904Z,6.53
2018-04-10T21:33:12.768Z,10.50
2018-04-10T21:35:40.630Z,9.63
2018-04-10T21:38:08.503Z,9.57
2018-04-10T21:40:36.368Z,7.20
2018-04-10T21:43:09.968Z,8.17
2018-04-10T21:45:37.831Z,10.07
2018-04-10T21:48:05.704Z,12.07
2018-04-10T21:50:33.569Z,7.37
2018-04-10T21:53:01.433Z,11.60
2018-04-10T21:55:29.193Z,12.20
2018-04-10T21:57:57.266Z,8.50
2018-04-10T22:00:25.138Z,10.67
2018-04-10T22:02:53.002Z,16.90
2018-04-10T22:05:20.976Z,11.10
2018-04-10T22:07:48.837Z,16.17
2018-04-10T22:10:16.699Z,8.67
2018-04-10T22:12:44.572Z,10.07
2018-04-10T22:15:12.951Z,12.43
2018-04-10T22:17:40.819Z,15.50
2018-04-10T22:20:08.936Z,11.97
2018-04-10T22:22:37.472Z,10.53
2018-04-10T22:25:05.336Z,12.20
2018-04-10T22:27:33.505Z,7.40
2018-04-10T22:30:01.313Z,10.73
2018-04-10T22:32:29.856Z,16.00
2018-04-10T22:34:57.898Z,10.43
2018-04-10T22:37:25.759Z,13.63
2018-04-10T22:39:53.632Z,10.40
2018-04-10T22:42:21.902Z,12.03
2018-04-10T22:44:49.783Z,11.30
2018-04-10T22:47:17.639Z,12.47
2018-04-10T22:49:45.503Z,10.97
2018-04-10T22:52:13.375Z,14.87
2018-04-10T22:54:41.238Z,12.03
2018-04-10T22:57:09.101Z,13.20
2018-04-10T22:59:36.974Z,13.10
2018-04-10T23:02:04.839Z,20.23
2018-04-10T23:04:32.709Z,16.30
2018-04-10T23:07:00.582Z,12.27
2018-04-10T23:09:28.351Z,17.10
2018-04-10T23:11:56.426Z,11.97
2018-04-10T23:14:24.293Z,12.47
2018-04-10T23:16:52.162Z,15.37
2018-04-10T23:19:20.035Z,12.20
2018-04-10T23:21:47.901Z,11.27
2018-04-10T23:24:15.768Z,12.77
2018-04-10T23:26:43.839Z,11.30
2018-04-10T23:29:11.723Z,11.33
2018-04-10T23:31:41.017Z,13.53
2018-04-10T23:34:09.088Z,14.27
2018-04-10T23:36:36.961Z,14.20
2018-04-10T23:39:04.817Z,12.40
2018-04-10T23:41:32.999Z,13.07
2018-04-10T23:44:00.863Z,13.70
2018-04-10T23:46:28.737Z,13.20
2018-04-10T23:48:57.020Z,16.90
2018-04-10T23:51:24.876Z,12.97
2018-04-10T23:53:52.748Z,9.63
2018-04-10T23:56:20.613Z,18.70
2018-04-10T23:58:48.472Z,14.57
